createdAt,value
2019-05-17T00:01:51.819Z,37.90
2019-05-17T00:04:18.820Z,37.70
2019-05-17T00:06:47.679Z,37.70
2019-05-17T00:09:14.722Z,37.70
2019-05-17T00:11:41.649Z,37.80
2019-05-17T00:14:08.574Z,37.80
2019-05-17T00:16:37.502Z,37.80
2019-05-17T00:19:07.492Z,37.90
2019-05-17T00:21:36.789Z,37.90
2019-05-17T00:24:03.534Z,37.90
2019-05-17T00:26:30.356Z,38.00
2019-05-17T00:28:57.137Z,37.90
2019-05-17T00:31:26.305Z,38.00
2019-05-17T00:33:53.240Z,37.90
2019-05-17T00:36:20.025Z,37.90
2019-05-17T00:38:50.963Z,37.90
2019-05-17T00:41:17.595Z,38.00
2019-05-17T00:43:46.234Z,38.10
2019-05-17T00:46:14.160Z,38.00
2019-05-17T00:48:41.067Z,37.90
2019-05-17T00:51:10.398Z,37.90
2019-05-17T00:53:37.802Z,37.70
2019-05-17T00:56:06.548Z,37.60
2019-05-17T00:58:32.946Z,37.50
2019-05-17T01:00:59.913Z,37.40
2019-05-17T01:03:27.051Z,37.30
2019-05-17T01:05:53.728Z,37.30
2019-05-17T01:08:21.156Z,37.50
2019-05-17T01:10:48.307Z,37.20
2019-05-17T01:13:17.136Z,37.60
2019-05-17T01:15:43.790Z,37.60
2019-05-17T01:18:10.656Z,37.70
2019-05-17T01:20:37.349Z,37.80
2019-05-17T01:23:04.493Z,37.70
2019-05-17T01:25:31.305Z,37.70
2019-05-17T01:27:59.306Z,37.70
2019-05-17T01:30:26.819Z,37.90
2019-05-17T01:32:53.370Z,37.80
2019-05-17T01:35:19.924Z,37.50
2019-05-17T01:37:47.533Z,37.40
2019-05-17T01:40:14.543Z,37.50
2019-05-17T01:42:41.075Z,37.70
2019-05-17T01:45:08.548Z,37.70
2019-05-17T01:47:36.822Z,37.70
2019-05-17T01:50:07.028Z,37.70
2019-05-17T01:52:33.991Z,37.80
2019-05-17T01:55:00.446Z,37.80
2019-05-17T01:57:27.471Z,37.90
2019-05-17T01:59:54.317Z,37.90
2019-05-17T02:02:27.020Z,37.90
2019-05-17T02:04:53.543Z,38.00
2019-05-17T02:07:20.278Z,38.10
2019-05-17T02:09:47.678Z,37.90
2019-05-17T02:12:14.436Z,37.90
2019-05-17T02:14:41.112Z,37.80
2019-05-17T02:17:07.543Z,37.90
2019-05-17T02:19:33.960Z,37.80
2019-05-17T02:22:00.825Z,37.80
2019-05-17T02:24:27.544Z,37.70
2019-05-17T02:26:54.171Z,37.80
2019-05-17T02:29:21.434Z,37.70
2019-05-17T02:31:48.186Z,37.80
2019-05-17T02:34:14.597Z,37.70
2019-05-17T02:36:43.038Z,37.70
2019-05-17T02:39:12.878Z,37.70
2019-05-17T02:41:38.142Z,37.60
2019-05-17T02:44:05.061Z,37.50
2019-05-17T02:46:33.772Z,37.40
2019-05-17T02:49:02.772Z,37.50
2019-05-17T02:51:28.614Z,37.30
2019-05-17T02:53:55.085Z,37.10
2019-05-17T02:56:23.065Z,36.90
2019-05-17T02:58:53.028Z,36.80
2019-05-17T03:01:18.276Z,36.50
2019-05-17T03:03:44.907Z,36.50
2019-05-17T03:06:13.656Z,36.50
2019-05-17T03:08:42.770Z,36.60
2019-05-17T03:11:08.354Z,36.60
2019-05-17T03:13:35.291Z,36.60
2019-05-17T03:16:03.493Z,36.70
2019-05-17T03:18:33.017Z,36.80
2019-05-17T03:20:59.011Z,36.70
2019-05-17T03:23:25.730Z,36.80
2019-05-17T03:25:52.593Z,36.90
2019-05-17T03:28:23.247Z,36.90
2019-05-17T03:30:48.666Z,37.00
2019-05-17T03:33:17.038Z,36.90
2019-05-17T03:35:46.150Z,36.90
2019-05-17T03:38:14.071Z,37.10
2019-05-17T03:41:07.663Z,37.10
2019-05-17T03:43:09.595Z,37.20
2019-05-17T03:45:36.123Z,37.20
2019-05-17T03:48:04.891Z,37.00
2019-05-17T03:50:33.536Z,36.90
2019-05-17T03:53:02.337Z,36.70
2019-05-17T03:55:49.075Z,36.60
2019-05-17T03:58:15.760Z,36.60
2019-05-17T04:00:42.864Z,36.60
2019-05-17T04:03:13.185Z,36.50
2019-05-17T04:05:42.644Z,36.40
2019-05-17T04:08:07.382Z,36.30
2019-05-17T04:10:34.360Z,36.10
2019-05-17T04:13:03.718Z,35.90
2019-05-17T04:15:29.040Z,35.60
2019-05-17T04:17:55.916Z,35.90
2019-05-17T04:20:22.520Z,35.00
2019-05-17T04:22:52.734Z,34.80
2019-05-17T04:25:19.023Z,34.50
2019-05-17T04:27:45.796Z,34.50
2019-05-17T04:30:13.172Z,34.30
2019-05-17T04:32:43.614Z,33.70
2019-05-17T04:35:12.927Z,33.40
2019-05-17T04:37:38.846Z,32.50
2019-05-17T04:40:08.778Z,32.10
2019-05-17T04:42:35.647Z,31.60
2019-05-17T04:45:03.974Z,30.90
2019-05-17T04:47:33.224Z,30.80
2019-05-17T04:50:03.591Z,31.10
2019-05-17T04:52:28.791Z,30.80
2019-05-17T04:54:56.610Z,30.60
2019-05-17T04:57:23.394Z,30.40
2019-05-17T04:59:52.360Z,30.50
2019-05-17T05:02:19.433Z,30.40
2019-05-17T05:04:46.113Z,30.10
2019-05-17T05:07:13.659Z,30.40
2019-05-17T05:09:42.911Z,30.50
2019-05-17T05:12:12.529Z,30.50
2019-05-17T05:14:38.768Z,30.40
2019-05-17T05:17:05.614Z,30.80
2019-05-17T05:19:33.075Z,31.00
2019-05-17T05:22:04.021Z,31.50
2019-05-17T05:24:28.968Z,31.60
2019-05-17T05:26:55.866Z,31.80
2019-05-17T05:29:22.691Z,32.00
2019-05-17T05:31:51.740Z,32.40
2019-05-17T05:34:21.468Z,32.60
2019-05-17T05:36:47.899Z,32.80
2019-05-17T05:39:14.771Z,32.80
2019-05-17T05:41:42.707Z,32.70
2019-05-17T05:44:12.090Z,32.80
2019-05-17T05:46:38.513Z,32.50
2019-05-17T05:49:05.210Z,32.50
2019-05-17T05:51:32.170Z,33.00
2019-05-17T05:54:01.623Z,33.10
2019-05-17T05:56:28.303Z,33.50
2019-05-17T05:58:54.931Z,33.70
2019-05-17T06:01:22.132Z,33.90
2019-05-17T06:03:48.746Z,33.60
2019-05-17T06:06:15.508Z,33.60
2019-05-17T06:08:42.499Z,33.60
2019-05-17T06:11:09.216Z,33.40
2019-05-17T06:13:36.042Z,33.20
2019-05-17T06:16:03.230Z,33.20
2019-05-17T06:18:31.797Z,33.10
2019-05-17T06:20:59.109Z,32.90
2019-05-17T06:23:26.163Z,33.00
2019-05-17T06:25:53.270Z,33.30
2019-05-17T06:28:22.147Z,33.20
2019-05-17T06:30:49.209Z,33.10
2019-05-17T06:33:27.177Z,33.10
2019-05-17T06:35:44.952Z,32.60
2019-05-17T06:38:12.362Z,33.00
2019-05-17T06:40:41.729Z,33.10
2019-05-17T06:43:08.046Z,33.00
2019-05-17T06:45:35.701Z,32.90
2019-05-17T06:48:02.761Z,32.60
2019-05-17T06:50:29.486Z,32.00
2019-05-17T06:52:56.582Z,31.10
2019-05-17T06:55:24.299Z,31.60
2019-05-17T06:57:52.792Z,32.00
2019-05-17T07:00:23.760Z,32.20
2019-05-17T07:02:49.862Z,32.40
2019-05-17T07:05:20.053Z,32.90
2019-05-17T07:07:49.536Z,33.10
2019-05-17T07:10:16.119Z,32.60
2019-05-17T07:12:55.133Z,32.40
2019-05-17T07:15:12.517Z,32.20
2019-05-17T07:17:39.977Z,32.00
2019-05-17T07:20:10.221Z,32.20
2019-05-17T07:22:36.492Z,32.60
2019-05-17T07:25:06.027Z,32.90
2019-05-17T07:27:41.405Z,33.00
2019-05-17T07:30:06.667Z,33.10
2019-05-17T07:32:33.085Z,33.10
2019-05-17T07:35:00.170Z,33.00
2019-05-17T07:37:27.390Z,33.10
2019-05-17T07:40:01.132Z,32.70
2019-05-17T07:42:22.907Z,32.60
2019-05-17T07:44:50.004Z,32.80
2019-05-17T07:47:16.831Z,32.80
2019-05-17T07:49:43.655Z,33.20
2019-05-17T07:52:10.810Z,33.80
2019-05-17T07:54:39.785Z,33.90
2019-05-17T07:57:06.235Z,34.20
2019-05-17T07:59:33.321Z,34.10
2019-05-17T08:02:00.136Z,34.80
2019-05-17T08:04:27.125Z,34.90
2019-05-17T08:06:55.270Z,34.80
2019-05-17T08:09:21.989Z,34.70
2019-05-17T08:11:50.199Z,34.40
2019-05-17T08:14:29.342Z,33.80
2019-05-17T08:16:45.913Z,33.60
2019-05-17T08:19:12.615Z,33.70
2019-05-17T08:21:39.931Z,32.80
2019-05-17T08:24:06.922Z,33.00
2019-05-17T08:26:33.706Z,33.50
2019-05-17T08:29:00.914Z,33.30
2019-05-17T08:31:29.438Z,32.90
2019-05-17T08:33:56.214Z,33.00
2019-05-17T08:36:23.356Z,32.90
2019-05-17T08:38:50.291Z,33.10
2019-05-17T08:41:17.305Z,33.60
2019-05-17T08:43:46.810Z,34.00
2019-05-17T08:46:13.111Z,33.20
2019-05-17T08:48:40.204Z,33.10
2019-05-17T08:51:07.371Z,32.80
2019-05-17T08:53:34.584Z,32.60
2019-05-17T08:56:01.299Z,32.20
2019-05-17T08:58:29.746Z,32.80
2019-05-17T09:00:56.857Z,32.10
2019-05-17T09:03:23.660Z,32.00
2019-05-17T09:05:52.595Z,32.00
2019-05-17T09:08:20.788Z,32.10
2019-05-17T09:10:50.468Z,32.00
2019-05-17T09:13:16.451Z,32.40
2019-05-17T09:15:43.362Z,32.20
2019-05-17T09:18:10.403Z,31.80
2019-05-17T09:20:37.655Z,30.70
2019-05-17T09:23:04.578Z,30.00
2019-05-17T09:25:31.453Z,30.20
2019-05-17T09:28:00.561Z,29.20
2019-05-17T09:30:27.711Z,29.00
2019-05-17T09:32:54.384Z,28.70
2019-05-17T09:35:21.479Z,29.00
2019-05-17T09:37:49.854Z,29.00
2019-05-17T09:40:17.027Z,28.50
2019-05-17T09:42:45.124Z,28.60
2019-05-17T09:45:12.326Z,28.50
2019-05-17T09:47:39.919Z,28.50
2019-05-17T09:50:09.964Z,27.90
2019-05-17T09:52:37.289Z,28.50
2019-05-17T09:55:04.725Z,28.60
2019-05-17T09:57:31.783Z,28.60
2019-05-17T10:00:00.191Z,28.10
2019-05-17T10:02:27.312Z,28.10
2019-05-17T10:04:55.487Z,28.60
2019-05-17T10:07:22.447Z,28.20
2019-05-17T10:09:50.332Z,28.60
2019-05-17T10:12:20.190Z,28.80
2019-05-17T10:14:46.829Z,28.20
2019-05-17T10:17:13.693Z,28.50
2019-05-17T10:19:40.795Z,28.20
2019-05-17T10:22:10.188Z,28.10
2019-05-17T10:24:41.567Z,28.40
2019-05-17T10:27:05.315Z,28.70
2019-05-17T10:29:32.112Z,28.30
2019-05-17T10:31:59.891Z,28.80
2019-05-17T10:34:29.345Z,28.00
2019-05-17T10:36:55.985Z,28.10
2019-05-17T10:39:22.785Z,28.70
2019-05-17T10:41:50.133Z,27.80
2019-05-17T10:44:16.967Z,27.80
2019-05-17T10:46:43.624Z,28.30
2019-05-17T10:49:11.033Z,27.60
2019-05-17T10:51:40.274Z,28.20
2019-05-17T10:54:09.633Z,27.10
2019-05-17T10:56:36.652Z,27.30
2019-05-17T10:59:03.570Z,27.20
2019-05-17T11:01:30.686Z,27.00
2019-05-17T11:03:59.581Z,27.00
2019-05-17T11:06:26.581Z,27.30
2019-05-17T11:08:53.390Z,27.30
2019-05-17T11:11:20.743Z,27.20
2019-05-17T11:13:47.699Z,27.20
2019-05-17T11:16:14.296Z,27.40
2019-05-17T11:18:41.522Z,27.50
2019-05-17T11:21:08.426Z,27.20
2019-05-17T11:23:36.202Z,26.80
2019-05-17T11:26:03.809Z,26.70
2019-05-17T11:28:30.594Z,26.80
2019-05-17T11:30:57.306Z,25.80
2019-05-17T11:33:24.590Z,25.80
2019-05-17T11:35:51.996Z,26.10
2019-05-17T11:38:18.705Z,25.80
2019-05-17T11:40:45.962Z,25.50
2019-05-17T11:43:12.705Z,25.40
2019-05-17T11:45:39.382Z,25.00
2019-05-17T11:48:06.607Z,25.20
2019-05-17T11:50:33.661Z,25.00
2019-05-17T11:53:00.589Z,25.20
2019-05-17T11:55:27.828Z,25.40
2019-05-17T11:57:54.803Z,25.00
2019-05-17T12:00:22.103Z,24.90
2019-05-17T12:02:49.525Z,25.20
2019-05-17T12:05:16.279Z,25.30
2019-05-17T12:07:43.099Z,25.60
2019-05-17T12:10:10.478Z,25.40
2019-05-17T12:12:37.285Z,25.10
2019-05-17T12:15:07.467Z,24.90
2019-05-17T12:17:34.575Z,24.70
2019-05-17T12:20:03.123Z,24.60
2019-05-17T12:22:30.298Z,25.00
2019-05-17T12:24:57.846Z,24.30
2019-05-17T12:27:25.161Z,24.70
2019-05-17T12:29:51.771Z,25.10
2019-05-17T12:32:19.169Z,25.00
2019-05-17T12:34:46.334Z,25.10
2019-05-17T12:37:13.720Z,25.00
2019-05-17T12:39:41.080Z,25.10
2019-05-17T12:42:08.113Z,25.90
2019-05-17T12:44:37.188Z,25.50
2019-05-17T12:47:04.033Z,25.10
2019-05-17T12:49:31.200Z,25.30
2019-05-17T12:51:58.446Z,24.60
2019-05-17T12:54:25.545Z,25.10
2019-05-17T12:56:52.220Z,25.00
2019-05-17T12:59:18.887Z,25.00
2019-05-17T13:01:45.885Z,25.00
2019-05-17T13:04:12.785Z,25.60
2019-05-17T13:06:39.711Z,25.80
2019-05-17T13:09:07.676Z,25.30
2019-05-17T13:11:34.687Z,25.10
2019-05-17T13:14:01.989Z,25.40
2019-05-17T13:16:30.171Z,25.30
2019-05-17T13:18:57.410Z,25.00
2019-05-17T13:21:25.185Z,25.20
2019-05-17T13:23:53.673Z,25.40
2019-05-17T13:26:20.605Z,25.60
2019-05-17T13:28:47.365Z,25.40
2019-05-17T13:31:14.597Z,25.00
2019-05-17T13:33:41.438Z,25.00
2019-05-17T13:36:08.705Z,25.30
2019-05-17T13:38:35.849Z,25.30
2019-05-17T13:41:02.896Z,26.20
2019-05-17T13:43:29.876Z,26.20
2019-05-17T13:45:56.834Z,26.10
2019-05-17T13:48:23.608Z,26.00
2019-05-17T13:50:51.998Z,26.10
2019-05-17T13:53:19.567Z,26.40
2019-05-17T13:55:46.729Z,26.70
2019-05-17T13:58:13.665Z,27.00
2019-05-17T14:00:41.124Z,26.90
2019-05-17T14:03:08.174Z,27.90
2019-05-17T14:05:35.014Z,27.30
2019-05-17T14:08:02.481Z,26.90
2019-05-17T14:10:32.062Z,26.30
2019-05-17T14:12:58.345Z,26.20
2019-05-17T14:15:25.594Z,25.90
2019-05-17T14:17:52.402Z,25.50
2019-05-17T14:20:19.201Z,25.30
2019-05-17T14:22:46.325Z,25.20
2019-05-17T14:25:13.834Z,25.80
2019-05-17T14:27:41.648Z,25.50
2019-05-17T14:30:10.319Z,25.60
2019-05-17T14:32:38.043Z,26.00
2019-05-17T14:35:05.567Z,26.30
2019-05-17T14:37:34.191Z,26.50
2019-05-17T14:40:01.764Z,26.60
2019-05-17T14:42:29.504Z,26.70
2019-05-17T14:44:57.305Z,26.80
2019-05-17T14:47:24.366Z,26.90
2019-05-17T14:49:51.518Z,26.50
2019-05-17T14:52:19.614Z,26.30
2019-05-17T14:54:46.737Z,26.30
2019-05-17T14:57:14.155Z,26.70
2019-05-17T14:59:43.409Z,25.70
2019-05-17T15:02:11.607Z,25.40
2019-05-17T15:04:39.074Z,25.00
2019-05-17T15:07:06.823Z,25.40
2019-05-17T15:09:34.377Z,24.80
2019-05-17T15:12:01.204Z,24.10
2019-05-17T15:14:29.616Z,24.00
2019-05-17T15:16:57.341Z,23.50
2019-05-17T15:19:24.036Z,23.70
2019-05-17T15:21:51.132Z,24.20
2019-05-17T15:24:18.298Z,24.40
2019-05-17T15:26:45.342Z,24.10
2019-05-17T15:29:12.601Z,23.90
2019-05-17T15:31:39.538Z,23.90
2019-05-17T15:34:06.482Z,23.80
2019-05-17T15:36:33.552Z,23.60
2019-05-17T15:39:00.787Z,23.90
2019-05-17T15:41:27.738Z,24.20
2019-05-17T15:43:54.820Z,24.20
2019-05-17T15:46:21.723Z,24.30
2019-05-17T15:48:48.494Z,24.60
2019-05-17T15:51:15.739Z,24.00
2019-05-17T15:53:42.641Z,24.00
2019-05-17T15:56:09.622Z,24.40
2019-05-17T15:58:36.792Z,24.70
2019-05-17T16:01:03.750Z,24.60
2019-05-17T16:03:30.756Z,24.50
2019-05-17T16:05:58.444Z,24.50
2019-05-17T16:08:25.698Z,24.50
2019-05-17T16:10:52.622Z,24.70
2019-05-17T16:13:19.793Z,24.80
2019-05-17T16:15:46.734Z,24.80
2019-05-17T16:18:13.688Z,24.80
2019-05-17T16:20:40.754Z,25.00
2019-05-17T16:23:07.629Z,24.90
2019-05-17T16:25:35.330Z,25.20
2019-05-17T16:28:02.787Z,25.50
2019-05-17T16:30:29.836Z,25.50
2019-05-17T16:32:56.771Z,25.70
2019-05-17T16:35:23.747Z,25.60
2019-05-17T16:37:50.817Z,25.60
2019-05-17T16:40:17.708Z,25.80
2019-05-17T16:42:44.967Z,25.80
2019-05-17T16:45:14.484Z,25.70
2019-05-17T16:47:41.542Z,25.80
2019-05-17T16:50:09.129Z,26.00
2019-05-17T16:52:35.929Z,26.30
2019-05-17T16:55:04.604Z,26.40
2019-05-17T16:57:31.719Z,26.40
2019-05-17T16:59:58.625Z,26.50
2019-05-17T17:02:25.574Z,26.60
2019-05-17T17:04:53.828Z,26.80
2019-05-17T17:07:20.591Z,26.90
2019-05-17T17:09:47.400Z,27.10
2019-05-17T17:12:14.566Z,27.20
2019-05-17T17:14:41.506Z,27.10
2019-05-17T17:17:11.248Z,27.10
2019-05-17T17:19:39.134Z,27.00
2019-05-17T17:22:06.781Z,26.90
2019-05-17T17:24:34.024Z,27.10
2019-05-17T17:27:01.484Z,27.20
2019-05-17T17:29:28.617Z,27.40
2019-05-17T17:31:55.753Z,27.70
2019-05-17T17:34:23.326Z,27.90
2019-05-17T17:36:51.130Z,28.10
2019-05-17T17:39:18.002Z,28.30
2019-05-17T17:41:44.890Z,28.70
2019-05-17T17:44:13.316Z,28.80
2019-05-17T17:46:40.941Z,29.40
2019-05-17T17:49:08.507Z,29.90
2019-05-17T17:51:36.250Z,30.60
2019-05-17T17:54:04.258Z,31.10
2019-05-17T17:56:33.175Z,31.30
2019-05-17T17:59:00.513Z,31.70
2019-05-17T18:01:27.835Z,31.90
2019-05-17T18:03:55.098Z,32.00
2019-05-17T18:06:22.253Z,32.00
2019-05-17T18:08:49.080Z,32.00
2019-05-17T18:11:15.849Z,32.00
2019-05-17T18:13:43.377Z,31.80
2019-05-17T18:16:10.846Z,31.50
2019-05-17T18:18:37.887Z,31.90
2019-05-17T18:21:05.178Z,31.80
2019-05-17T18:23:32.049Z,31.70
2019-05-17T18:25:59.956Z,32.00
2019-05-17T18:28:26.993Z,31.50
2019-05-17T18:30:53.796Z,31.50
2019-05-17T18:33:20.892Z,31.90
2019-05-17T18:35:48.074Z,32.00
2019-05-17T18:38:18.695Z,32.20
2019-05-17T18:40:46.193Z,32.20
2019-05-17T18:43:13.601Z,32.40
2019-05-17T18:45:40.572Z,32.40
2019-05-17T18:48:07.591Z,32.50
2019-05-17T18:50:35.143Z,32.70
2019-05-17T18:53:03.067Z,32.70
2019-05-17T18:55:30.591Z,32.70
2019-05-17T18:57:57.829Z,32.70
2019-05-17T19:00:25.793Z,32.90
2019-05-17T19:02:52.725Z,32.90
2019-05-17T19:05:19.939Z,33.00
2019-05-17T19:07:47.178Z,33.20
2019-05-17T19:10:16.244Z,33.40
2019-05-17T19:12:43.529Z,33.60
2019-05-17T19:15:11.256Z,33.60
2019-05-17T19:17:38.173Z,33.70
2019-05-17T19:20:06.293Z,33.60
2019-05-17T19:22:34.167Z,33.70
2019-05-17T19:25:01.385Z,33.80
2019-05-17T19:27:28.887Z,33.70
2019-05-17T19:29:56.028Z,33.70
2019-05-17T19:32:23.447Z,33.70
2019-05-17T19:34:51.350Z,34.30
2019-05-17T19:37:19.548Z,34.00
2019-05-17T19:39:46.721Z,34.10
2019-05-17T19:42:14.780Z,34.10
2019-05-17T19:44:41.988Z,34.10
2019-05-17T19:47:09.768Z,34.10
2019-05-17T19:49:36.825Z,34.10
2019-05-17T19:52:04.488Z,34.20
2019-05-17T19:54:31.457Z,34.30
2019-05-17T19:57:02.372Z,34.30
2019-05-17T19:59:29.836Z,34.30
2019-05-17T20:01:57.167Z,34.50
2019-05-17T20:04:25.372Z,34.50
2019-05-17T20:06:52.148Z,34.50
2019-05-17T20:09:19.432Z,34.50
2019-05-17T20:11:46.641Z,34.50
2019-05-17T20:14:14.598Z,34.60
2019-05-17T20:16:41.714Z,34.70
2019-05-17T20:19:08.894Z,35.00
2019-05-17T20:21:36.653Z,34.60
2019-05-17T20:24:03.492Z,34.50
2019-05-17T20:26:30.789Z,34.60
2019-05-17T20:28:57.463Z,34.60
2019-05-17T20:31:24.253Z,34.70
2019-05-17T20:33:51.719Z,34.50
2019-05-17T20:36:18.739Z,34.60
2019-05-17T20:38:45.965Z,34.50
2019-05-17T20:41:13.225Z,34.60
2019-05-17T20:43:40.126Z,34.60
2019-05-17T20:46:07.135Z,34.50
2019-05-17T20:48:34.098Z,34.50
2019-05-17T20:51:01.662Z,35.30
2019-05-17T20:53:29.614Z,34.80
2019-05-17T20:55:57.260Z,34.60
2019-05-17T20:58:24.122Z,34.50
2019-05-17T21:00:50.943Z,34.60
2019-05-17T21:03:18.197Z,34.60
2019-05-17T21:05:44.897Z,34.80
2019-05-17T21:08:11.564Z,34.70
2019-05-17T21:10:38.635Z,34.90
2019-05-17T21:13:05.538Z,34.90
2019-05-17T21:15:45.628Z,35.00
2019-05-17T21:18:01.443Z,34.90
2019-05-17T21:20:28.459Z,34.80
2019-05-17T21:22:55.727Z,35.00
2019-05-17T21:25:22.880Z,35.00
2019-05-17T21:27:50.126Z,34.70
2019-05-17T21:30:17.464Z,35.10
2019-05-17T21:32:44.458Z,35.20
2019-05-17T21:35:11.891Z,35.20
2019-05-17T21:37:38.655Z,35.10
2019-05-17T21:40:11.222Z,35.20
2019-05-17T21:42:37.946Z,35.30
2019-05-17T21:45:05.397Z,35.30
2019-05-17T21:47:32.582Z,35.20
2019-05-17T21:50:00.438Z,35.20
2019-05-17T21:52:27.115Z,35.30
2019-05-17T21:54:54.202Z,35.30
2019-05-17T21:57:21.666Z,35.60
2019-05-17T21:59:48.105Z,35.70
2019-05-17T22:02:15.066Z,35.70
2019-05-17T22:04:41.773Z,35.60
2019-05-17T22:07:08.983Z,35.60
2019-05-17T22:09:36.219Z,35.60
2019-05-17T22:12:10.837Z,35.60
2019-05-17T22:14:37.585Z,35.50
2019-05-17T22:17:04.321Z,35.40
2019-05-17T22:19:30.989Z,35.40
2019-05-17T22:21:57.700Z,36.20
2019-05-17T22:24:25.152Z,35.50
2019-05-17T22:26:51.688Z,35.50
2019-05-17T22:29:18.540Z,35.60
2019-05-17T22:31:45.678Z,35.70
2019-05-17T22:34:12.204Z,35.60
2019-05-17T22:36:39.042Z,35.60
2019-05-17T22:39:05.808Z,35.60
2019-05-17T22:41:32.534Z,35.50
2019-05-17T22:44:00.721Z,35.30
2019-05-17T22:46:35.549Z,35.40
2019-05-17T22:48:55.874Z,35.30
2019-05-17T22:51:22.588Z,35.30
2019-05-17T22:53:49.238Z,35.30
2019-05-17T22:56:16.152Z,35.10
2019-05-17T22:58:42.919Z,35.20
2019-05-17T23:01:10.033Z,35.00
2019-05-17T23:03:36.866Z,35.00
2019-05-17T23:06:03.695Z,35.10
2019-05-17T23:08:30.134Z,35.20
2019-05-17T23:10:56.901Z,35.30
2019-05-17T23:13:23.646Z,35.40
2019-05-17T23:16:00.431Z,35.50
2019-05-17T23:18:32.343Z,35.50
2019-05-17T23:20:59.963Z,35.50
2019-05-17T23:23:26.628Z,35.30
2019-05-17T23:25:53.765Z,35.00
2019-05-17T23:28:20.414Z,35.00
2019-05-17T23:30:47.221Z,35.10
2019-05-17T23:33:14.087Z,35.20
2019-05-17T23:35:40.680Z,35.10
2019-05-17T23:38:07.136Z,35.30
2019-05-17T23:40:34.080Z,35.50
2019-05-17T23:43:00.442Z,35.60
2019-05-17T23:45:26.997Z,35.70
2019-05-17T23:47:54.305Z,35.80
2019-05-17T23:50:22.748Z,35.90
2019-05-17T23:52:49.409Z,35.80
2019-05-17T23:55:16.795Z,35.70
2019-05-17T23:57:43.741Z,35.50
